Capitol Logistics 224


KLAX
Los Angeles International Airport
Los Angeles, California, US
PANC
Ted Stevens Anchorage International Airport
Anchorage, Alaska, US

Route Details

Aircraft Information
Primary: Boeing 767-300BDSF
Backup: Not Available
Route Data
Distance: 2089nm
Sched. Duration: 4h 40m
Avg. Duration: 5h 10m (+70m)
Times Flown: 16
Recm'd Route: SUMMR1 SCTRR PYE J143 ENI FOT BOXER B453 MDO WITTI4
Planned Altitude: 34,000ft
Origin Wx: KLAX 200253Z 26007KT 10SM OVC009 18/16 A2992 RMK AO2 SLP130 T01830156 53006
Dest. Wx: PANC 200253Z 36005KT 10SM CLR 01/M04 A3013 RMK AO2 SLP206 T00061039 53005
Notes:

Financial History
Total Freight: 1,939,829lbs
Average Load: 121,239lbs/flt
Fuel Used: 951,728lbs
Avg. Fuel Used: 59,483lbs/flt
Fuel Expense: $1,130,118
Avg. Fuel Expense: $70,632
Avg. Fuel Cost: $1.19/lbs
Total Gross Income: $2,610,442
Pilot Pay: $3,134
Total Expenses: $278,051
Total Revenue: $1,182,903
Average Revenue: $163,152.64